createdAt,value
2023-09-27T00:00:27.127Z,43.30
2023-09-27T00:15:28.928Z,44.30
2023-09-27T00:30:30.657Z,43.13
2023-09-27T00:45:32.400Z,45.50
2023-09-27T01:00:34.720Z,42.97
2023-09-27T01:15:36.450Z,44.40
2023-09-27T01:30:39.423Z,45.13
2023-09-27T01:45:41.360Z,46.47
2023-09-27T02:00:43.169Z,48.13
2023-09-27T02:15:45.249Z,45.77
2023-09-27T02:30:46.961Z,44.20
2023-09-27T02:45:50.643Z,44.10
2023-09-27T03:00:53.697Z,41.40
2023-09-27T03:15:59.862Z,39.63
2023-09-27T03:31:02.182Z,37.43
2023-09-27T03:46:07.250Z,38.20
2023-09-27T04:01:08.943Z,36.50
2023-09-27T04:16:10.642Z,32.80
2023-09-27T04:31:12.461Z,36.13
2023-09-27T04:46:18.512Z,39.00
2023-09-27T05:01:20.263Z,41.93
2023-09-27T05:16:22.097Z,40.13
2023-09-27T05:31:23.887Z,38.50
2023-09-27T05:46:27.818Z,38.60
2023-09-27T06:01:29.654Z,40.40
2023-09-27T06:16:31.389Z,43.47
2023-09-27T06:31:33.200Z,45.27
2023-09-27T06:46:47.988Z,43.70
2023-09-27T07:01:51.023Z,46.40
2023-09-27T07:17:00.943Z,50.33
2023-09-27T07:32:05.838Z,49.63
2023-09-27T07:47:08.206Z,48.47
2023-09-27T08:02:10.794Z,47.97
2023-09-27T08:17:12.690Z,48.43
2023-09-27T08:32:14.470Z,50.17
2023-09-27T08:47:16.726Z,52.93
2023-09-27T09:02:20.313Z,49.33
2023-09-27T09:17:27.000Z,51.53
2023-09-27T09:32:30.755Z,54.00
2023-09-27T09:48:10.719Z,54.93
2023-09-27T10:03:20.660Z,53.67
2023-09-27T10:18:22.775Z,56.37
2023-09-27T10:33:29.543Z,58.60
2023-09-27T10:48:34.917Z,54.50
2023-09-27T11:03:36.739Z,54.40
2023-09-27T11:18:52.948Z,56.07
2023-09-27T11:34:10.812Z,54.40
2023-09-27T11:49:12.595Z,57.87
2023-09-27T12:04:14.457Z,59.07
2023-09-27T12:19:34.813Z,58.13
2023-09-27T12:34:36.442Z,60.43
2023-09-27T13:04:39.752Z,60.53
2023-09-27T14:34:57.922Z,54.10
2023-09-27T14:50:01.065Z,56.97
2023-09-27T15:05:04.425Z,50.17
2023-09-27T15:20:25.478Z,53.20
2023-09-27T16:05:50.160Z,49.83
2023-09-27T16:20:52.070Z,50.17
2023-09-27T16:50:56.941Z,49.23
2023-09-27T17:05:59.537Z,50.80
2023-09-27T17:21:20.316Z,49.43
2023-09-27T17:36:22.058Z,51.70
2023-09-27T17:51:24.406Z,51.47
2023-09-27T18:06:26.157Z,46.73
2023-09-27T18:21:29.425Z,46.37
2023-09-27T18:36:31.814Z,51.33
2023-09-27T18:51:33.617Z,47.67
2023-09-27T19:07:12.740Z,52.63
2023-09-27T19:22:36.177Z,53.00
2023-09-27T19:37:56.467Z,56.33
2023-09-27T19:53:17.159Z,50.80
2023-09-27T20:08:18.872Z,51.13
2023-09-27T20:23:20.678Z,51.13
2023-09-27T20:38:22.355Z,47.10
2023-09-27T20:53:25.465Z,49.97
2023-09-27T21:08:27.257Z,50.53
2023-09-27T21:23:30.716Z,49.47
2023-09-27T21:38:32.579Z,48.30
2023-09-27T21:53:53.227Z,49.63
2023-09-27T22:08:55.076Z,45.67
2023-09-27T22:24:34.088Z,50.17
2023-09-27T22:39:41.129Z,49.87
2023-09-27T22:54:43.672Z,45.27
2023-09-27T23:09:48.432Z,43.03
2023-09-27T23:25:10.608Z,44.00
2023-09-27T23:40:15.859Z,42.00
2023-09-27T23:55:18.589Z,41.57
